createdAt,value
2023-05-21T00:04:25.897Z,1.60
2023-05-21T00:07:28.170Z,2.00
2023-05-21T00:10:30.242Z,1.90
2023-05-21T00:13:32.407Z,1.70
2023-05-21T00:16:34.568Z,1.70
2023-05-21T00:19:36.851Z,2.20
2023-05-21T00:22:40.419Z,1.70
2023-05-21T00:25:42.426Z,1.40
2023-05-21T00:28:44.361Z,1.80
2023-05-21T00:31:46.407Z,2.10
2023-05-21T00:34:48.614Z,1.70
2023-05-21T00:41:51.327Z,2.40
2023-05-21T00:44:54.651Z,1.90
2023-05-21T00:47:56.831Z,1.70
2023-05-21T00:50:59.395Z,1.60
2023-05-21T00:54:01.924Z,1.90
2023-05-21T00:57:04.742Z,2.20
2023-05-21T01:00:09.153Z,1.60
2023-05-21T01:03:13.218Z,1.80
2023-05-21T01:06:16.412Z,2.30
2023-05-21T01:09:18.749Z,1.90
2023-05-21T01:12:23.223Z,1.90
2023-05-21T01:15:26.236Z,1.90
2023-05-21T01:18:30.097Z,2.40
2023-05-21T01:21:37.729Z,2.10
2023-05-21T01:24:40.178Z,2.00
2023-05-21T01:27:42.154Z,1.90
2023-05-21T01:30:45.116Z,2.60
2023-05-21T01:33:53.035Z,1.70
2023-05-21T01:37:09.141Z,2.00
2023-05-21T01:43:58.098Z,2.20
2023-05-21T01:47:03.513Z,2.10
2023-05-21T01:50:06.915Z,2.60
2023-05-21T01:53:09.119Z,2.20
2023-05-21T01:56:11.804Z,2.40
2023-05-21T01:59:14.172Z,2.40
2023-05-21T02:04:26.914Z,2.10
2023-05-21T02:07:29.513Z,2.50
2023-05-21T02:10:31.899Z,2.40
2023-05-21T02:13:34.105Z,2.00
2023-05-21T02:16:38.629Z,1.90
2023-05-21T02:19:42.175Z,2.30
2023-05-21T02:22:46.759Z,2.20
2023-05-21T02:25:49.006Z,2.50
2023-05-21T02:28:53.242Z,2.20
2023-05-21T02:31:56.003Z,2.20
2023-05-21T02:34:59.265Z,2.30
2023-05-21T02:38:03.696Z,2.30
2023-05-21T02:41:05.948Z,2.50
2023-05-21T02:44:08.234Z,3.10
2023-05-21T02:47:10.823Z,2.00
2023-05-21T02:50:14.261Z,2.20
2023-05-21T02:53:20.397Z,3.50
2023-05-21T02:56:22.625Z,2.30
2023-05-21T02:59:25.065Z,2.50
2023-05-21T03:02:27.329Z,2.30
2023-05-21T03:05:30.104Z,2.30
2023-05-21T03:08:32.459Z,3.20
2023-05-21T03:11:34.892Z,2.50
2023-05-21T03:14:37.418Z,2.50
2023-05-21T03:17:39.697Z,2.70
2023-05-21T03:20:44.627Z,3.20
2023-05-21T03:23:46.733Z,2.30
2023-05-21T03:26:49.834Z,2.60
2023-05-21T03:29:52.263Z,2.50
2023-05-21T03:32:54.449Z,2.70
2023-05-21T03:35:56.550Z,2.60
2023-05-21T03:38:59.323Z,2.60
2023-05-21T03:42:01.691Z,2.30
2023-05-21T03:45:15.401Z,2.60
2023-05-21T03:48:43.838Z,2.60
2023-05-21T03:51:47.824Z,2.40
2023-05-21T03:54:51.741Z,2.60
2023-05-21T03:57:54.100Z,2.80
2023-05-21T04:04:45.069Z,3.40
2023-05-21T04:07:48.271Z,3.00
2023-05-21T04:10:50.591Z,3.20
2023-05-21T04:13:52.805Z,3.00
2023-05-21T04:16:54.966Z,3.20
2023-05-21T04:19:57.022Z,3.10
2023-05-21T04:22:59.035Z,3.20
2023-05-21T04:26:01.446Z,3.30
2023-05-21T04:29:04.542Z,3.90
2023-05-21T04:32:07.423Z,3.90
2023-05-21T04:35:10.211Z,3.90
2023-05-21T04:38:13.639Z,3.90
2023-05-21T04:41:18.461Z,3.50
2023-05-21T04:44:20.835Z,3.80
2023-05-21T04:47:22.948Z,4.10
2023-05-21T04:50:25.371Z,3.80
2023-05-21T04:53:28.869Z,4.20
2023-05-21T04:56:31.547Z,3.90
2023-05-21T04:59:35.096Z,4.00
2023-05-21T05:02:37.095Z,3.90
2023-05-21T05:05:39.886Z,3.70
2023-05-21T05:08:41.888Z,3.60
2023-05-21T05:11:43.886Z,3.70
2023-05-21T05:14:46.516Z,3.60
2023-05-21T05:17:49.917Z,5.10
2023-05-21T05:20:51.987Z,3.30
2023-05-21T05:23:54.567Z,3.40
2023-05-21T05:26:59.604Z,4.30
2023-05-21T05:30:02.082Z,3.80
2023-05-21T05:33:06.687Z,4.00
2023-05-21T05:36:09.040Z,3.90
2023-05-21T05:39:12.179Z,4.00
2023-05-21T05:42:15.043Z,4.00
2023-05-21T05:45:17.747Z,4.50
2023-05-21T05:48:20.087Z,4.10
2023-05-21T05:51:22.309Z,3.30
2023-05-21T05:54:24.642Z,3.30
2023-05-21T05:57:27.330Z,3.10
2023-05-21T06:04:30.365Z,3.60
2023-05-21T06:07:33.695Z,4.20
2023-05-21T06:10:37.644Z,3.20
2023-05-21T06:13:39.870Z,3.40
2023-05-21T06:16:42.571Z,2.80
2023-05-21T06:19:46.168Z,3.00
2023-05-21T06:22:48.601Z,3.10
2023-05-21T06:25:51.416Z,3.20
2023-05-21T06:28:54.842Z,2.90
2023-05-21T06:31:57.241Z,3.00
2023-05-21T06:34:59.756Z,2.80
2023-05-21T06:38:02.356Z,4.00
2023-05-21T06:41:04.825Z,3.00
2023-05-21T06:44:21.012Z,2.80
2023-05-21T06:47:46.169Z,2.70
2023-05-21T06:50:48.653Z,2.50
2023-05-21T06:53:51.633Z,2.40
2023-05-21T06:56:53.864Z,2.80
2023-05-21T06:59:56.203Z,2.80
2023-05-21T07:02:58.628Z,2.30
2023-05-21T07:06:01.702Z,2.50
2023-05-21T07:09:06.089Z,2.30
2023-05-21T07:12:08.411Z,2.50
2023-05-21T07:15:11.452Z,2.60
2023-05-21T07:18:14.754Z,2.80
2023-05-21T07:21:17.371Z,3.20
2023-05-21T07:24:21.767Z,2.70
2023-05-21T07:27:25.822Z,2.20
2023-05-21T07:43:37.638Z,2.20
2023-05-21T07:46:40.339Z,2.30
2023-05-21T07:49:43.467Z,1.90
2023-05-21T07:52:46.113Z,2.00
2023-05-21T07:55:48.969Z,2.30
2023-05-21T07:58:54.265Z,2.10
2023-05-21T08:01:57.064Z,2.00
2023-05-21T08:04:59.615Z,2.00
2023-05-21T08:08:02.026Z,1.80
2023-05-21T08:11:04.924Z,2.10
2023-05-21T08:14:07.498Z,2.20
2023-05-21T08:17:14.007Z,2.10
2023-05-21T08:20:16.452Z,2.50
2023-05-21T08:23:20.307Z,2.30
2023-05-21T08:26:25.997Z,2.20
2023-05-21T10:04:48.800Z,2.40
2023-05-21T10:07:53.839Z,2.20
2023-05-21T10:10:57.437Z,2.50
2023-05-21T10:14:08.593Z,2.00
2023-05-21T10:17:12.710Z,2.10
2023-05-21T10:20:16.293Z,1.90
2023-05-21T10:23:20.241Z,2.90
2023-05-21T10:26:24.483Z,2.20
2023-05-21T10:29:27.191Z,2.30
2023-05-21T10:32:30.089Z,2.10
2023-05-21T10:35:33.896Z,2.00
2023-05-21T10:38:38.563Z,1.70
2023-05-21T10:42:21.074Z,2.20
2023-05-21T10:45:59.749Z,2.10
2023-05-21T10:49:17.071Z,2.20
2023-05-21T10:52:19.140Z,2.30
2023-05-21T10:55:36.749Z,2.20
2023-05-21T10:58:57.243Z,2.30
2023-05-21T11:01:59.897Z,2.60
2023-05-21T11:05:03.830Z,1.60
2023-05-21T11:08:20.688Z,2.00
2023-05-21T11:11:42.727Z,2.40
2023-05-21T11:15:03.785Z,2.00
2023-05-21T11:18:09.037Z,1.90
2023-05-21T11:21:17.550Z,2.80
2023-05-21T11:24:20.350Z,2.30
2023-05-21T11:27:37.802Z,2.10
2023-05-21T11:30:42.191Z,1.90
2023-05-21T11:33:47.644Z,2.70
2023-05-21T11:37:09.680Z,2.20
2023-05-21T11:40:26.826Z,1.80
2023-05-21T11:43:29.240Z,2.10
2023-05-21T11:46:31.471Z,1.80
2023-05-21T11:49:34.174Z,2.00
2023-05-21T11:52:37.703Z,1.80
2023-05-21T11:55:42.875Z,1.60
2023-05-21T11:58:46.172Z,2.10
2023-05-21T12:01:48.379Z,2.30
2023-05-21T12:04:51.180Z,1.90
2023-05-21T12:07:55.248Z,1.60
2023-05-21T12:11:01.505Z,2.20
2023-05-21T12:14:13.597Z,2.00
2023-05-21T12:17:17.932Z,2.10
2023-05-21T12:20:20.444Z,2.40
2023-05-21T12:23:25.881Z,2.10
2023-05-21T12:26:29.156Z,2.00
2023-05-21T12:29:32.201Z,2.00
2023-05-21T12:32:34.372Z,2.00
2023-05-21T12:35:36.998Z,2.10
2023-05-21T12:38:39.128Z,2.10
2023-05-21T12:41:41.639Z,2.20
2023-05-21T12:44:46.277Z,1.80
2023-05-21T12:47:50.222Z,1.90
2023-05-21T12:50:52.480Z,2.30
2023-05-21T12:53:54.416Z,1.90
2023-05-21T12:56:56.545Z,1.60
2023-05-21T13:00:00.523Z,2.00
2023-05-21T13:03:04.121Z,2.40
2023-05-21T13:06:07.798Z,2.10
2023-05-21T13:09:11.308Z,2.10
2023-05-21T13:12:13.152Z,2.10
2023-05-21T13:15:15.618Z,2.00
2023-05-21T13:18:17.658Z,2.50
2023-05-21T13:21:19.426Z,3.20
2023-05-21T13:24:21.279Z,2.10
2023-05-21T13:27:23.186Z,2.50
2023-05-21T13:30:25.118Z,2.20
2023-05-21T13:33:27.118Z,2.40
2023-05-21T13:36:28.981Z,2.30
2023-05-21T13:39:30.866Z,2.20
2023-05-21T13:42:33.679Z,2.70
2023-05-21T13:45:35.700Z,2.40
2023-05-21T13:48:37.494Z,2.40
2023-05-21T13:51:39.528Z,2.10
2023-05-21T13:54:42.384Z,1.90
2023-05-21T14:04:45.585Z,3.10
2023-05-21T14:07:48.090Z,2.50
2023-05-21T14:10:50.769Z,2.60
2023-05-21T14:13:53.138Z,1.90
2023-05-21T14:16:55.551Z,2.10
2023-05-21T14:19:57.663Z,1.90
2023-05-21T14:22:59.848Z,2.20
2023-05-21T14:26:02.010Z,1.80
2023-05-21T14:29:04.387Z,2.10
2023-05-21T14:32:07.315Z,2.00
2023-05-21T14:35:10.764Z,2.10
2023-05-21T14:38:13.050Z,2.00
2023-05-21T14:41:15.106Z,2.20
2023-05-21T14:44:17.331Z,1.70
2023-05-21T14:47:19.453Z,2.40
2023-05-21T14:50:21.512Z,2.00
2023-05-21T14:53:23.503Z,1.90
2023-05-21T14:56:27.346Z,2.10
2023-05-21T14:59:29.268Z,2.10
2023-05-21T15:02:31.410Z,2.10
2023-05-21T15:05:33.814Z,2.40
2023-05-21T15:08:36.073Z,2.10
2023-05-21T15:11:39.467Z,2.20
2023-05-21T15:14:41.543Z,2.10
2023-05-21T15:17:43.975Z,2.00
2023-05-21T15:20:46.188Z,2.00
2023-05-21T15:23:48.636Z,2.30
2023-05-21T15:26:50.870Z,1.80
2023-05-21T15:29:53.259Z,2.40
2023-05-21T15:32:55.791Z,2.40
2023-05-21T15:35:58.033Z,2.10
2023-05-21T15:52:28.319Z,2.10
2023-05-21T15:55:34.636Z,2.60
2023-05-21T15:58:37.337Z,2.60
2023-05-21T16:01:39.835Z,2.10
2023-05-21T16:16:46.448Z,2.10
2023-05-21T16:19:49.574Z,1.90
2023-05-21T16:22:51.720Z,2.00
2023-05-21T16:25:53.873Z,1.90
2023-05-21T16:28:55.963Z,2.10
2023-05-21T16:31:58.083Z,1.80
2023-05-21T16:35:00.328Z,2.10
2023-05-21T16:38:02.475Z,2.50
2023-05-21T16:41:04.654Z,2.10
2023-05-21T16:58:13.485Z,3.20
2023-05-21T17:01:16.186Z,2.90
2023-05-21T17:04:18.233Z,2.20
2023-05-21T17:07:20.332Z,3.40
2023-05-21T17:10:24.928Z,3.00
2023-05-21T17:13:27.126Z,3.20
2023-05-21T17:16:29.278Z,3.40
2023-05-21T17:19:31.361Z,3.80
2023-05-21T17:22:33.433Z,3.50
2023-05-21T17:25:35.671Z,3.60
2023-05-21T17:28:38.190Z,3.80
2023-05-21T17:31:40.858Z,4.20
2023-05-21T17:34:43.649Z,3.90
2023-05-21T17:37:46.810Z,4.30
2023-05-21T17:40:50.314Z,4.30
2023-05-21T17:43:52.643Z,3.70
2023-05-21T17:46:56.105Z,4.70
2023-05-21T17:49:58.404Z,3.50
2023-05-21T17:53:00.544Z,3.70
2023-05-21T17:56:03.155Z,4.00
2023-05-21T17:59:06.406Z,3.60
2023-05-21T18:04:26.416Z,3.50
2023-05-21T18:07:29.543Z,3.60
2023-05-21T18:10:31.895Z,3.00
2023-05-21T18:13:34.270Z,2.70
2023-05-21T18:16:36.457Z,3.50
2023-05-21T18:19:38.590Z,4.50
2023-05-21T18:22:40.770Z,4.50
2023-05-21T18:25:42.931Z,4.20
2023-05-21T18:28:45.213Z,5.90
2023-05-21T18:31:47.730Z,4.50
2023-05-21T18:34:50.199Z,4.40
2023-05-21T18:37:52.323Z,5.40
2023-05-21T18:40:54.396Z,4.70
2023-05-21T18:43:56.458Z,5.20
2023-05-21T18:46:58.969Z,4.30
2023-05-21T18:50:01.485Z,5.10
2023-05-21T18:53:03.487Z,4.00
2023-05-21T18:56:07.193Z,4.60
2023-05-21T18:59:09.500Z,4.50
2023-05-21T22:04:27.569Z,4.40
2023-05-21T22:07:33.302Z,3.90
2023-05-21T22:13:56.607Z,3.80
2023-05-21T22:16:58.917Z,4.00
2023-05-21T22:20:01.768Z,4.50
2023-05-21T22:23:04.336Z,4.10
2023-05-21T22:26:07.815Z,3.80
2023-05-21T22:29:10.206Z,3.90
2023-05-21T22:32:13.542Z,4.10
2023-05-21T22:35:15.983Z,3.50
2023-05-21T22:38:18.563Z,3.60
2023-05-21T22:41:21.234Z,4.30
2023-05-21T22:44:23.651Z,4.60
2023-05-21T22:47:27.043Z,4.30
2023-05-21T22:50:29.656Z,4.40
2023-05-21T22:53:33.926Z,4.30
2023-05-21T22:56:36.073Z,5.10
2023-05-21T22:59:38.251Z,4.10
2023-05-21T23:02:40.925Z,4.50
2023-05-21T23:05:43.189Z,5.10
2023-05-21T23:08:45.753Z,4.50
2023-05-21T23:11:47.972Z,5.30
2023-05-21T23:14:50.214Z,4.90
2023-05-21T23:17:52.637Z,4.60
2023-05-21T23:20:54.881Z,5.10
2023-05-21T23:23:57.245Z,4.80
2023-05-21T23:27:03.185Z,4.40
2023-05-21T23:30:06.484Z,4.10
2023-05-21T23:33:09.033Z,4.40
2023-05-21T23:36:11.300Z,4.50
2023-05-21T23:39:13.711Z,4.80
2023-05-21T23:42:16.761Z,4.40
2023-05-21T23:45:19.053Z,4.70
2023-05-21T23:48:21.463Z,4.30
2023-05-21T23:51:23.694Z,4.50
2023-05-21T23:54:25.960Z,3.80
2023-05-21T23:57:28.004Z,4.40
